Pagina principale
METAR-TAF:

METAR-TAF

Aeroporti :

Polokwane, Sudafrica

latitudine: 23-50-43S, longitudine: 29-27-31E, altezza: 1242 m

Osservazione

Il bollettino è stato emesso 58 minuti fa, alle 18:00 UTC
Vento 7 kt da nord-est
Temperature 22°C
Umidità 73%
Pressione 1020 hPa
Visibilità 10 km o più
Poco nuvoloso ad un'altezza di 2000 ft

METAR: FAPP 161800Z 05007KT 9999 FEW020 22/17 Q1020 NOSIG

Ora: 20:58 (18:58 UTC)

Previsione

Il bollettino è stato emesso 9 ore e 58 minuti fa, alle 09:00 UTC
Previsione valida dal 16 alle 10 UTC al 16 alle 18 UTC
Vento 3 kt da direzioni variabili
Visibilità 10 km o più
Nubi sparse ad un'altezza di 3000 ft
Probabilità 30% :
Temporaneamente
dal 16 alle 12 UTC al 16 alle 17 UTC
Poco nuvoloso ad un'altezza di 3500 ft, Cumulo congesto.

TAF: FAPP 160900Z 1610/1618 VRB03KT 9999 SCT030 TX28/1613Z TN23/1618Z PROB30 TEMPO 1612/1617 FEW035TCU

Osservazioni e previsioni meteorologiche di più di 4000 aeroporti (messaggi METAR e TAF).

Le stazioni disponibili sono rappresentate dai dischi gialli e rossi sulla carta.

Puntare il mouse per vedere il nome della stazione.

Clicca sopra per visualizzare le osservazioni e previsioni meteorologiche.

Per cambiare la mappa : fare clic sui pulsanti verdi con una croce nera per ingrandire, il pulsante verde con un trattino per diminuire, o sulla freccia verde per le mappe adiacenti.


METAR-TAF: